sensor_id;sensor_type;location;lat;lon;timestamp;pressure;altitude;pressure_sealevel;temperature;humidity
15750;BME280;7976;52.526;13.326;2023-05-02T00:00:28;100850.66;;;15.62;46.76
15750;BME280;7976;52.526;13.326;2023-05-02T00:02:55;100847.25;;;15.60;46.72
15750;BME280;7976;52.526;13.326;2023-05-02T00:05:22;100851.84;;;15.57;46.87
15750;BME280;7976;52.526;13.326;2023-05-02T00:07:50;100846.84;;;15.52;46.87
15750;BME280;7976;52.526;13.326;2023-05-02T00:10:17;100848.72;;;15.50;47.01
15750;BME280;7976;52.526;13.326;2023-05-02T00:12:46;100845.38;;;15.47;47.03
15750;BME280;7976;52.526;13.326;2023-05-02T00:15:13;100846.47;;;15.43;47.19
15750;BME280;7976;52.526;13.326;2023-05-02T00:17:40;100839.72;;;15.37;47.37
15750;BME280;7976;52.526;13.326;2023-05-02T00:20:09;100836.34;;;15.35;47.50
15750;BME280;7976;52.526;13.326;2023-05-02T00:22:38;100844.47;;;15.31;47.55
15750;BME280;7976;52.526;13.326;2023-05-02T00:25:06;100850.78;;;15.28;47.84
15750;BME280;7976;52.526;13.326;2023-05-02T00:27:33;100842.09;;;15.26;47.50
15750;BME280;7976;52.526;13.326;2023-05-02T00:30:01;100844.06;;;15.23;47.76
15750;BME280;7976;52.526;13.326;2023-05-02T00:32:28;100842.44;;;15.20;47.75
15750;BME280;7976;52.526;13.326;2023-05-02T00:34:55;100835.53;;;15.18;47.96
15750;BME280;7976;52.526;13.326;2023-05-02T00:37:25;100840.03;;;15.16;47.79
15750;BME280;7976;52.526;13.326;2023-05-02T00:39:53;100842.00;;;15.12;48.01
15750;BME280;7976;52.526;13.326;2023-05-02T00:42:20;100840.38;;;15.09;47.98
15750;BME280;7976;52.526;13.326;2023-05-02T00:44:47;100835.28;;;15.06;48.39
15750;BME280;7976;52.526;13.326;2023-05-02T00:47:15;100841.66;;;15.02;48.48
15750;BME280;7976;52.526;13.326;2023-05-02T00:49:42;100836.53;;;14.99;48.47
15750;BME280;7976;52.526;13.326;2023-05-02T00:52:09;100840.25;;;14.95;48.70
15750;BME280;7976;52.526;13.326;2023-05-02T00:54:36;100839.66;;;14.90;49.07
15750;BME280;7976;52.526;13.326;2023-05-02T00:57:03;100839.91;;;14.86;48.94
15750;BME280;7976;52.526;13.326;2023-05-02T00:59:30;100841.84;;;14.82;49.18
15750;BME280;7976;52.526;13.326;2023-05-02T01:02:12;100837.53;;;14.81;49.54
15750;BME280;7976;52.526;13.326;2023-05-02T01:05:03;100835.06;;;14.78;49.73
15750;BME280;7976;52.526;13.326;2023-05-02T01:07:59;100846.69;;;14.74;50.21
15750;BME280;7976;52.526;13.326;2023-05-02T01:10:41;100839.13;;;14.68;50.44
15750;BME280;7976;52.526;13.326;2023-05-02T01:13:18;100839.16;;;14.67;50.72
15750;BME280;7976;52.526;13.326;2023-05-02T01:15:49;100841.06;;;14.65;51.04
15750;BME280;7976;52.526;13.326;2023-05-02T01:18:20;100843.69;;;14.65;51.10
15750;BME280;7976;52.526;13.326;2023-05-02T01:20:57;100847.06;;;14.67;51.42
15750;BME280;7976;52.526;13.326;2023-05-02T01:23:37;100846.16;;;14.68;51.56
15750;BME280;7976;52.526;13.326;2023-05-02T01:26:23;100845.22;;;14.69;52.21
15750;BME280;7976;52.526;13.326;2023-05-02T01:28:58;100848.72;;;14.69;52.09
15750;BME280;7976;52.526;13.326;2023-05-02T01:31:30;100849.50;;;14.71;52.39
15750;BME280;7976;52.526;13.326;2023-05-02T01:34:00;100853.03;;;14.70;52.30
15750;BME280;7976;52.526;13.326;2023-05-02T01:36:30;100850.47;;;14.69;52.72
15750;BME280;7976;52.526;13.326;2023-05-02T01:39:00;100859.41;;;14.66;53.04
15750;BME280;7976;52.526;13.326;2023-05-02T01:41:30;100855.91;;;14.66;53.24
15750;BME280;7976;52.526;13.326;2023-05-02T01:44:01;100864.06;;;14.61;53.59
15750;BME280;7976;52.526;13.326;2023-05-02T01:46:32;100873.22;;;14.54;53.77
15750;BME280;7976;52.526;13.326;2023-05-02T01:49:02;100875.22;;;14.49;54.14
15750;BME280;7976;52.526;13.326;2023-05-02T01:51:34;100871.97;;;14.44;54.54
15750;BME280;7976;52.526;13.326;2023-05-02T01:54:06;100874.00;;;14.39;54.74
15750;BME280;7976;52.526;13.326;2023-05-02T01:56:37;100873.38;;;14.34;54.97
15750;BME280;7976;52.526;13.326;2023-05-02T01:59:10;100877.84;;;14.32;55.45
15750;BME280;7976;52.526;13.326;2023-05-02T02:01:39;100880.66;;;14.29;55.64
15750;BME280;7976;52.526;13.326;2023-05-02T02:04:09;100879.94;;;14.26;56.09
15750;BME280;7976;52.526;13.326;2023-05-02T02:06:41;100880.94;;;14.23;56.06
15750;BME280;7976;52.526;13.326;2023-05-02T02:09:10;100890.75;;;14.20;56.42
15750;BME280;7976;52.526;13.326;2023-05-02T02:11:46;100892.84;;;14.13;56.40
15750;BME280;7976;52.526;13.326;2023-05-02T02:14:21;100899.25;;;14.08;56.88
15750;BME280;7976;52.526;13.326;2023-05-02T02:16:55;100896.00;;;14.03;56.97
15750;BME280;7976;52.526;13.326;2023-05-02T02:19:26;100904.13;;;13.98;57.12
15750;BME280;7976;52.526;13.326;2023-05-02T02:21:57;100904.41;;;13.92;57.16
15750;BME280;7976;52.526;13.326;2023-05-02T02:24:25;100904.72;;;13.86;57.75
15750;BME280;7976;52.526;13.326;2023-05-02T02:26:53;100908.41;;;13.82;57.79
15750;BME280;7976;52.526;13.326;2023-05-02T02:29:21;100902.50;;;13.77;58.02
15750;BME280;7976;52.526;13.326;2023-05-02T02:31:48;100907.22;;;13.70;58.28
15750;BME280;7976;52.526;13.326;2023-05-02T02:34:15;100910.91;;;13.66;58.79
15750;BME280;7976;52.526;13.326;2023-05-02T02:36:48;100918.22;;;13.60;58.98
15750;BME280;7976;52.526;13.326;2023-05-02T02:39:34;100920.28;;;13.53;59.39
15750;BME280;7976;52.526;13.326;2023-05-02T02:42:11;100921.50;;;13.46;59.43
15750;BME280;7976;52.526;13.326;2023-05-02T02:44:52;100926.81;;;13.45;59.63
15750;BME280;7976;52.526;13.326;2023-05-02T02:47:26;100927.84;;;13.42;59.70
15750;BME280;7976;52.526;13.326;2023-05-02T02:50:10;100929.75;;;13.39;59.85
15750;BME280;7976;52.526;13.326;2023-05-02T02:52:52;100932.59;;;13.34;60.20
15750;BME280;7976;52.526;13.326;2023-05-02T02:55:33;100932.84;;;13.28;60.18
15750;BME280;7976;52.526;13.326;2023-05-02T02:58:18;100949.56;;;13.27;60.05
15750;BME280;7976;52.526;13.326;2023-05-02T03:00:47;100944.44;;;13.24;60.32
15750;BME280;7976;52.526;13.326;2023-05-02T03:03:16;100957.75;;;13.20;60.23
15750;BME280;7976;52.526;13.326;2023-05-02T03:05:45;100957.19;;;13.13;60.68
15750;BME280;7976;52.526;13.326;2023-05-02T03:08:13;100976.59;;;13.11;60.96
15750;BME280;7976;52.526;13.326;2023-05-02T03:10:40;100971.47;;;13.08;60.95
15750;BME280;7976;52.526;13.326;2023-05-02T03:13:07;100979.38;;;13.06;61.20
15750;BME280;7976;52.526;13.326;2023-05-02T03:16:17;100988.28;;;13.04;61.40
15750;BME280;7976;52.526;13.326;2023-05-02T03:18:53;100996.25;;;13.01;61.30
15750;BME280;7976;52.526;13.326;2023-05-02T03:21:21;100995.38;;;13.02;61.46
15750;BME280;7976;52.526;13.326;2023-05-02T03:23:48;100998.00;;;13.02;61.42
15750;BME280;7976;52.526;13.326;2023-05-02T03:26:15;101005.00;;;13.01;61.61
15750;BME280;7976;52.526;13.326;2023-05-02T03:28:43;101006.72;;;13.02;61.51
15750;BME280;7976;52.526;13.326;2023-05-02T03:31:17;101017.41;;;12.98;61.67
15750;BME280;7976;52.526;13.326;2023-05-02T03:33:44;101010.56;;;12.94;62.05
15750;BME280;7976;52.526;13.326;2023-05-02T03:36:11;101008.09;;;12.91;62.18
15750;BME280;7976;52.526;13.326;2023-05-02T03:38:39;101012.41;;;12.92;62.34
15750;BME280;7976;52.526;13.326;2023-05-02T03:41:09;101017.59;;;12.93;62.72
15750;BME280;7976;52.526;13.326;2023-05-02T03:43:36;101023.78;;;12.92;62.75
15750;BME280;7976;52.526;13.326;2023-05-02T03:46:05;101029.94;;;12.91;63.05
15750;BME280;7976;52.526;13.326;2023-05-02T03:48:36;101019.56;;;12.88;63.13
15750;BME280;7976;52.526;13.326;2023-05-02T03:51:05;101025.88;;;12.84;63.63
15750;BME280;7976;52.526;13.326;2023-05-02T03:53:39;101026.84;;;12.82;63.93
15750;BME280;7976;52.526;13.326;2023-05-02T03:56:06;101035.81;;;12.76;64.41
15750;BME280;7976;52.526;13.326;2023-05-02T03:58:43;101035.16;;;12.71;64.62
15750;BME280;7976;52.526;13.326;2023-05-02T04:01:14;101040.53;;;12.68;64.87
15750;BME280;7976;52.526;13.326;2023-05-02T04:03:43;101047.56;;;12.68;65.21
15750;BME280;7976;52.526;13.326;2023-05-02T04:06:12;101048.56;;;12.65;65.18
15750;BME280;7976;52.526;13.326;2023-05-02T04:08:41;101049.50;;;12.62;65.54
15750;BME280;7976;52.526;13.326;2023-05-02T04:11:08;101053.13;;;12.60;65.69
15750;BME280;7976;52.526;13.326;2023-05-02T04:13:35;101062.84;;;12.58;65.79
15750;BME280;7976;52.526;13.326;2023-05-02T04:16:03;101061.97;;;12.57;65.95
15750;BME280;7976;52.526;13.326;2023-05-02T04:18:33;101061.06;;;12.58;66.13
15750;BME280;7976;52.526;13.326;2023-05-02T04:21:03;101060.94;;;12.61;66.03
15750;BME280;7976;52.526;13.326;2023-05-02T04:23:31;101069.50;;;12.67;65.95
15750;BME280;7976;52.526;13.326;2023-05-02T04:26:00;101072.91;;;12.69;65.74
15750;BME280;7976;52.526;13.326;2023-05-02T04:28:35;101071.97;;;12.70;65.56
15750;BME280;7976;52.526;13.326;2023-05-02T04:31:02;101079.94;;;12.68;65.77
15750;BME280;7976;52.526;13.326;2023-05-02T04:33:30;101084.22;;;12.71;65.51
15750;BME280;7976;52.526;13.326;2023-05-02T04:35:58;101085.78;;;12.75;65.57
15750;BME280;7976;52.526;13.326;2023-05-02T04:38:26;101082.94;;;12.81;65.20
15750;BME280;7976;52.526;13.326;2023-05-02T04:40:53;101078.44;;;12.83;65.16
15750;BME280;7976;52.526;13.326;2023-05-02T04:43:28;101087.19;;;12.83;64.79
15750;BME280;7976;52.526;13.326;2023-05-02T04:45:59;101093.31;;;12.84;64.91
15750;BME280;7976;52.526;13.326;2023-05-02T04:48:30;101096.72;;;12.86;64.88
15750;BME280;7976;52.526;13.326;2023-05-02T04:50:58;101098.56;;;12.84;64.69
15750;BME280;7976;52.526;13.326;2023-05-02T04:53:27;101105.41;;;12.88;64.80
15750;BME280;7976;52.526;13.326;2023-05-02T04:55:54;101106.06;;;12.93;64.63
15750;BME280;7976;52.526;13.326;2023-05-02T04:58:22;101106.00;;;12.94;64.73
15750;BME280;7976;52.526;13.326;2023-05-02T05:00:56;101106.84;;;12.95;64.45
15750;BME280;7976;52.526;13.326;2023-05-02T05:03:23;101116.44;;;12.96;64.43
15750;BME280;7976;52.526;13.326;2023-05-02T05:05:50;101119.81;;;12.99;64.24
15750;BME280;7976;52.526;13.326;2023-05-02T05:08:20;101131.09;;;13.03;64.16
15750;BME280;7976;52.526;13.326;2023-05-02T05:10:49;101125.69;;;13.06;64.33
15750;BME280;7976;52.526;13.326;2023-05-02T05:13:16;101138.78;;;13.07;64.07
15750;BME280;7976;52.526;13.326;2023-05-02T05:15:47;101140.47;;;13.08;64.16
15750;BME280;7976;52.526;13.326;2023-05-02T05:18:15;101145.06;;;13.03;64.10
15750;BME280;7976;52.526;13.326;2023-05-02T05:20:42;101139.16;;;12.97;64.24
15750;BME280;7976;52.526;13.326;2023-05-02T05:23:10;101147.44;;;12.88;64.59
15750;BME280;7976;52.526;13.326;2023-05-02T05:25:37;101158.97;;;12.84;64.79
15750;BME280;7976;52.526;13.326;2023-05-02T05:28:06;101152.84;;;12.83;64.96
15750;BME280;7976;52.526;13.326;2023-05-02T05:30:35;101157.25;;;12.83;65.04
15750;BME280;7976;52.526;13.326;2023-05-02T05:33:04;101157.06;;;12.87;64.87
15750;BME280;7976;52.526;13.326;2023-05-02T05:35:31;101171.75;;;12.93;64.63
15750;BME280;7976;52.526;13.326;2023-05-02T05:37:59;101178.69;;;12.94;64.86
15750;BME280;7976;52.526;13.326;2023-05-02T05:40:28;101178.44;;;13.00;64.82
15750;BME280;7976;52.526;13.326;2023-05-02T05:42:57;101180.09;;;13.04;64.88
15750;BME280;7976;52.526;13.326;2023-05-02T05:45:29;101180.09;;;13.04;64.84
15750;BME280;7976;52.526;13.326;2023-05-02T05:47:56;101189.59;;;13.06;64.89
15750;BME280;7976;52.526;13.326;2023-05-02T05:50:26;101185.94;;;13.10;64.78
15750;BME280;7976;52.526;13.326;2023-05-02T05:52:52;101190.22;;;13.13;64.96
15750;BME280;7976;52.526;13.326;2023-05-02T05:55:19;101203.91;;;13.21;64.99
15750;BME280;7976;52.526;13.326;2023-05-02T05:57:46;101202.78;;;13.26;64.86
15750;BME280;7976;52.526;13.326;2023-05-02T06:00:14;101211.13;;;13.37;64.77
15750;BME280;7976;52.526;13.326;2023-05-02T06:02:42;101215.13;;;13.46;64.58
15750;BME280;7976;52.526;13.326;2023-05-02T06:05:16;101216.69;;;13.50;64.61
15750;BME280;7976;52.526;13.326;2023-05-02T06:07:43;101218.50;;;13.49;64.95
15750;BME280;7976;52.526;13.326;2023-05-02T06:10:11;101235.00;;;13.53;65.05
15750;BME280;7976;52.526;13.326;2023-05-02T06:12:40;101235.78;;;13.55;65.14
15750;BME280;7976;52.526;13.326;2023-05-02T06:15:09;101243.56;;;13.58;65.32
15750;BME280;7976;52.526;13.326;2023-05-02T06:17:36;101247.69;;;13.63;65.09
15750;BME280;7976;52.526;13.326;2023-05-02T06:20:06;101252.78;;;13.68;65.50
15750;BME280;7976;52.526;13.326;2023-05-02T06:22:33;101252.50;;;13.74;65.44
15750;BME280;7976;52.526;13.326;2023-05-02T06:25:00;101258.44;;;13.79;65.78
15750;BME280;7976;52.526;13.326;2023-05-02T06:27:29;101256.34;;;13.87;65.79
15750;BME280;7976;52.526;13.326;2023-05-02T06:29:56;101269.34;;;13.90;65.94
15750;BME280;7976;52.526;13.326;2023-05-02T06:32:23;101270.34;;;13.88;66.09
15750;BME280;7976;52.526;13.326;2023-05-02T06:34:50;101266.94;;;13.85;66.68
15750;BME280;7976;52.526;13.326;2023-05-02T06:37:19;101275.63;;;13.88;66.85
15750;BME280;7976;52.526;13.326;2023-05-02T06:39:46;101282.66;;;13.87;67.11
15750;BME280;7976;52.526;13.326;2023-05-02T06:42:13;101283.25;;;13.94;67.37
15750;BME280;7976;52.526;13.326;2023-05-02T06:44:40;101286.47;;;14.00;67.21
15750;BME280;7976;52.526;13.326;2023-05-02T06:47:07;101298.31;;;14.10;67.38
15750;BME280;7976;52.526;13.326;2023-05-02T06:49:34;101302.28;;;14.20;66.98
15750;BME280;7976;52.526;13.326;2023-05-02T06:52:01;101298.88;;;14.18;67.13
15750;BME280;7976;52.526;13.326;2023-05-02T06:54:29;101310.16;;;14.20;67.18
15750;BME280;7976;52.526;13.326;2023-05-02T06:56:55;101305.59;;;14.25;66.93
15750;BME280;7976;52.526;13.326;2023-05-02T06:59:22;101311.41;;;14.33;67.00
15750;BME280;7976;52.526;13.326;2023-05-02T07:01:49;101318.22;;;14.37;66.74
15750;BME280;7976;52.526;13.326;2023-05-02T07:04:16;101329.28;;;14.45;66.66
15750;BME280;7976;52.526;13.326;2023-05-02T07:06:43;101324.41;;;14.56;66.45
15750;BME280;7976;52.526;13.326;2023-05-02T07:09:09;101339.94;;;14.62;66.25
15750;BME280;7976;52.526;13.326;2023-05-02T07:11:38;101338.09;;;14.64;66.17
15750;BME280;7976;52.526;13.326;2023-05-02T07:14:04;101346.00;;;14.64;66.28
15750;BME280;7976;52.526;13.326;2023-05-02T07:16:32;101344.81;;;14.71;66.29
15750;BME280;7976;52.526;13.326;2023-05-02T07:18:58;101342.97;;;14.73;66.25
15750;BME280;7976;52.526;13.326;2023-05-02T07:21:26;101339.03;;;14.82;66.42
15750;BME280;7976;52.526;13.326;2023-05-02T07:23:53;101342.16;;;14.91;66.37
15750;BME280;7976;52.526;13.326;2023-05-02T07:26:22;101338.03;;;15.04;65.86
15750;BME280;7976;52.526;13.326;2023-05-02T07:28:51;101346.94;;;15.21;65.75
15750;BME280;7976;52.526;13.326;2023-05-02T07:31:18;101352.72;;;15.29;65.69
15750;BME280;7976;52.526;13.326;2023-05-02T07:33:45;101351.94;;;15.27;65.43
15750;BME280;7976;52.526;13.326;2023-05-02T07:36:12;101353.44;;;15.14;65.89
15750;BME280;7976;52.526;13.326;2023-05-02T07:38:38;101355.44;;;15.08;66.21
15750;BME280;7976;52.526;13.326;2023-05-02T07:41:05;101357.13;;;15.09;66.26
15750;BME280;7976;52.526;13.326;2023-05-02T07:43:32;101361.38;;;15.12;66.87
15750;BME280;7976;52.526;13.326;2023-05-02T07:46:04;101356.19;;;15.10;66.29
15750;BME280;7976;52.526;13.326;2023-05-02T07:48:31;101365.97;;;15.08;66.29
15750;BME280;7976;52.526;13.326;2023-05-02T07:51:05;101369.50;;;15.07;66.30
15750;BME280;7976;52.526;13.326;2023-05-02T07:53:32;101375.06;;;15.01;66.50
15750;BME280;7976;52.526;13.326;2023-05-02T07:55:59;101380.34;;;15.01;66.44
15750;BME280;7976;52.526;13.326;2023-05-02T07:58:26;101384.09;;;14.96;66.63
15750;BME280;7976;52.526;13.326;2023-05-02T08:00:53;101383.53;;;14.89;66.73
15750;BME280;7976;52.526;13.326;2023-05-02T08:03:21;101385.38;;;14.87;67.23
15750;BME280;7976;52.526;13.326;2023-05-02T08:05:48;101389.31;;;14.97;66.80
15750;BME280;7976;52.526;13.326;2023-05-02T08:08:15;101395.72;;;15.10;66.89
15750;BME280;7976;52.526;13.326;2023-05-02T08:10:42;101395.75;;;15.29;66.56
15750;BME280;7976;52.526;13.326;2023-05-02T08:13:10;101392.66;;;15.40;66.35
15750;BME280;7976;52.526;13.326;2023-05-02T08:15:37;101399.38;;;15.47;66.19
15750;BME280;7976;52.526;13.326;2023-05-02T08:18:03;101399.06;;;15.53;65.89
15750;BME280;7976;52.526;13.326;2023-05-02T08:20:32;101403.84;;;15.63;65.72
15750;BME280;7976;52.526;13.326;2023-05-02T08:22:58;101408.06;;;15.67;65.41
15750;BME280;7976;52.526;13.326;2023-05-02T08:25:25;101413.47;;;15.64;65.30
15750;BME280;7976;52.526;13.326;2023-05-02T08:27:52;101422.66;;;15.56;65.35
15750;BME280;7976;52.526;13.326;2023-05-02T08:30:19;101421.47;;;15.44;65.53
15750;BME280;7976;52.526;13.326;2023-05-02T08:32:46;101421.00;;;15.35;65.71
15750;BME280;7976;52.526;13.326;2023-05-02T08:35:12;101433.69;;;15.27;65.78
15750;BME280;7976;52.526;13.326;2023-05-02T08:37:41;101429.69;;;15.18;65.80
15750;BME280;7976;52.526;13.326;2023-05-02T08:40:11;101432.00;;;15.05;66.12
15750;BME280;7976;52.526;13.326;2023-05-02T08:42:41;101437.56;;;14.99;66.02
15750;BME280;7976;52.526;13.326;2023-05-02T08:45:12;101436.75;;;14.97;66.60
15750;BME280;7976;52.526;13.326;2023-05-02T08:47:40;101435.06;;;14.96;66.57
15750;BME280;7976;52.526;13.326;2023-05-02T08:50:08;101435.22;;;14.92;66.80
15750;BME280;7976;52.526;13.326;2023-05-02T08:52:36;101442.44;;;14.88;67.02
15750;BME280;7976;52.526;13.326;2023-05-02T08:55:06;101449.34;;;14.91;66.99
15750;BME280;7976;52.526;13.326;2023-05-02T08:57:33;101454.75;;;14.88;67.00
15750;BME280;7976;52.526;13.326;2023-05-02T09:00:00;101448.91;;;14.81;67.13
15750;BME280;7976;52.526;13.326;2023-05-02T09:02:46;101461.41;;;14.76;67.30
15750;BME280;7976;52.526;13.326;2023-05-02T09:05:19;101458.66;;;14.79;67.60
15750;BME280;7976;52.526;13.326;2023-05-02T09:07:47;101467.81;;;14.91;67.37
15750;BME280;7976;52.526;13.326;2023-05-02T09:10:16;101465.50;;;15.03;67.27
15750;BME280;7976;52.526;13.326;2023-05-02T09:12:43;101473.31;;;15.25;67.11
15750;BME280;7976;52.526;13.326;2023-05-02T09:15:12;101483.06;;;15.43;66.92
15750;BME280;7976;52.526;13.326;2023-05-02T09:17:41;101484.22;;;15.56;66.83
15750;BME280;7976;52.526;13.326;2023-05-02T09:20:11;101492.00;;;15.59;66.66
15750;BME280;7976;52.526;13.326;2023-05-02T09:22:38;101498.69;;;15.48;66.58
15750;BME280;7976;52.526;13.326;2023-05-02T09:25:06;101492.28;;;15.33;66.95
15750;BME280;7976;52.526;13.326;2023-05-02T09:27:52;101500.94;;;15.17;67.38
15750;BME280;7976;52.526;13.326;2023-05-02T09:30:22;101506.09;;;14.99;67.67
15750;BME280;7976;52.526;13.326;2023-05-02T09:32:50;101508.38;;;14.87;68.08
15750;BME280;7976;52.526;13.326;2023-05-02T09:35:18;101512.94;;;14.83;68.27
15750;BME280;7976;52.526;13.326;2023-05-02T09:37:51;101517.28;;;14.84;68.72
15750;BME280;7976;52.526;13.326;2023-05-02T09:40:18;101518.91;;;14.87;68.51
15750;BME280;7976;52.526;13.326;2023-05-02T09:42:45;101512.75;;;14.88;68.47
15750;BME280;7976;52.526;13.326;2023-05-02T09:45:24;101516.25;;;14.88;68.47
15750;BME280;7976;52.526;13.326;2023-05-02T09:47:52;101510.91;;;14.90;68.74
15750;BME280;7976;52.526;13.326;2023-05-02T09:50:36;101517.44;;;15.01;68.67
15750;BME280;7976;52.526;13.326;2023-05-02T09:53:05;101517.59;;;15.17;68.54
15750;BME280;7976;52.526;13.326;2023-05-02T09:55:33;101526.38;;;15.38;68.07
15750;BME280;7976;52.526;13.326;2023-05-02T09:58:00;101531.56;;;15.59;67.50
15750;BME280;7976;52.526;13.326;2023-05-02T10:00:43;101535.25;;;15.75;67.11
15750;BME280;7976;52.526;13.326;2023-05-02T10:03:15;101535.19;;;15.77;66.49
15750;BME280;7976;52.526;13.326;2023-05-02T10:05:44;101535.72;;;15.65;66.78
15750;BME280;7976;52.526;13.326;2023-05-02T10:08:12;101533.84;;;15.48;66.90
15750;BME280;7976;52.526;13.326;2023-05-02T10:10:43;101546.31;;;15.25;67.58
15750;BME280;7976;52.526;13.326;2023-05-02T10:13:12;101546.44;;;15.01;68.48
15750;BME280;7976;52.526;13.326;2023-05-02T10:15:44;101556.44;;;14.93;69.31
15750;BME280;7976;52.526;13.326;2023-05-02T10:18:20;101558.69;;;15.02;69.74
15750;BME280;7976;52.526;13.326;2023-05-02T10:20:55;101566.06;;;15.15;69.31
15750;BME280;7976;52.526;13.326;2023-05-02T10:23:25;101567.69;;;15.19;69.08
15750;BME280;7976;52.526;13.326;2023-05-02T10:25:53;101578.47;;;15.13;69.33
15750;BME280;7976;52.526;13.326;2023-05-02T10:28:20;101580.63;;;15.03;69.45
15750;BME280;7976;52.526;13.326;2023-05-02T10:30:49;101593.59;;;14.87;69.62
15750;BME280;7976;52.526;13.326;2023-05-02T10:33:20;101594.81;;;14.79;69.93
15750;BME280;7976;52.526;13.326;2023-05-02T10:35:48;101596.84;;;14.72;69.93
15750;BME280;7976;52.526;13.326;2023-05-02T10:38:19;101610.50;;;14.60;70.25
15750;BME280;7976;52.526;13.326;2023-05-02T10:40:54;101614.25;;;14.55;70.53
15750;BME280;7976;52.526;13.326;2023-05-02T10:43:25;101613.47;;;14.53;70.67
15750;BME280;7976;52.526;13.326;2023-05-02T10:45:54;101619.59;;;14.53;70.42
15750;BME280;7976;52.526;13.326;2023-05-02T10:48:23;101629.00;;;14.37;70.44
15750;BME280;7976;52.526;13.326;2023-05-02T10:50:53;101637.38;;;14.24;70.66
15750;BME280;7976;52.526;13.326;2023-05-02T10:53:31;101640.13;;;14.21;70.82
15750;BME280;7976;52.526;13.326;2023-05-02T10:56:17;101641.50;;;14.08;70.64
15750;BME280;7976;52.526;13.326;2023-05-02T10:58:48;101651.09;;;13.85;71.22
15750;BME280;7976;52.526;13.326;2023-05-02T11:01:37;101646.75;;;13.60;71.98
15750;BME280;7976;52.526;13.326;2023-05-02T11:04:09;101654.09;;;13.50;72.43
15750;BME280;7976;52.526;13.326;2023-05-02T11:07:15;101665.44;;;13.52;72.28
15750;BME280;7976;52.526;13.326;2023-05-02T11:09:43;101663.00;;;13.46;72.19
15750;BME280;7976;52.526;13.326;2023-05-02T11:12:09;101669.63;;;13.32;72.05
15750;BME280;7976;52.526;13.326;2023-05-02T11:14:44;101678.69;;;13.23;71.92
15750;BME280;7976;52.526;13.326;2023-05-02T11:17:17;101677.91;;;13.20;71.80
15750;BME280;7976;52.526;13.326;2023-05-02T11:20:22;101683.59;;;13.34;70.75
15750;BME280;7976;52.526;13.326;2023-05-02T11:22:50;101678.94;;;13.42;70.10
15750;BME280;7976;52.526;13.326;2023-05-02T11:25:36;101676.59;;;13.59;68.88
15750;BME280;7976;52.526;13.326;2023-05-02T11:28:06;101676.31;;;13.66;68.01
15750;BME280;7976;52.526;13.326;2023-05-02T11:30:51;101676.88;;;13.76;67.13
15750;BME280;7976;52.526;13.326;2023-05-02T11:33:19;101688.91;;;13.83;66.40
15750;BME280;7976;52.526;13.326;2023-05-02T11:35:47;101688.81;;;13.86;65.37
15750;BME280;7976;52.526;13.326;2023-05-02T11:38:17;101698.09;;;13.96;64.88
15750;BME280;7976;52.526;13.326;2023-05-02T11:40:57;101707.50;;;14.03;63.98
15750;BME280;7976;52.526;13.326;2023-05-02T11:43:27;101694.66;;;14.17;63.59
15750;BME280;7976;52.526;13.326;2023-05-02T11:45:55;101701.03;;;14.36;62.69
15750;BME280;7976;52.526;13.326;2023-05-02T11:48:26;101696.88;;;14.52;62.07
15750;BME280;7976;52.526;13.326;2023-05-02T11:50:56;101701.28;;;14.52;61.68
15750;BME280;7976;52.526;13.326;2023-05-02T11:53:25;101700.03;;;14.39;61.27
15750;BME280;7976;52.526;13.326;2023-05-02T11:55:56;101699.88;;;14.19;61.49
15750;BME280;7976;52.526;13.326;2023-05-02T11:58:26;101702.69;;;14.14;61.43
15750;BME280;7976;52.526;13.326;2023-05-02T12:00:54;101705.56;;;14.08;61.77
15750;BME280;7976;52.526;13.326;2023-05-02T12:03:27;101711.66;;;14.09;61.28
15750;BME280;7976;52.526;13.326;2023-05-02T12:05:55;101713.47;;;14.07;61.27
15750;BME280;7976;52.526;13.326;2023-05-02T12:08:27;101724.63;;;14.15;61.14
15750;BME280;7976;52.526;13.326;2023-05-02T12:10:55;101728.63;;;14.26;60.43
15750;BME280;7976;52.526;13.326;2023-05-02T12:13:25;101710.94;;;14.30;60.37
15750;BME280;7976;52.526;13.326;2023-05-02T12:15:53;101726.59;;;14.33;60.24
15750;BME280;7976;52.526;13.326;2023-05-02T12:18:23;101724.78;;;14.35;60.05
15750;BME280;7976;52.526;13.326;2023-05-02T12:20:55;101726.72;;;14.30;59.94
15750;BME280;7976;52.526;13.326;2023-05-02T12:23:24;101730.88;;;14.35;59.92
15750;BME280;7976;52.526;13.326;2023-05-02T12:25:51;101731.69;;;14.37;60.10
15750;BME280;7976;52.526;13.326;2023-05-02T12:28:19;101730.75;;;14.40;59.52
15750;BME280;7976;52.526;13.326;2023-05-02T12:30:50;101742.06;;;14.42;59.76
15750;BME280;7976;52.526;13.326;2023-05-02T12:33:17;101751.75;;;14.41;59.65
15750;BME280;7976;52.526;13.326;2023-05-02T12:35:44;101740.91;;;14.49;59.49
15750;BME280;7976;52.526;13.326;2023-05-02T12:38:16;101750.88;;;14.64;59.17
15750;BME280;7976;52.526;13.326;2023-05-02T12:40:50;101744.75;;;14.86;58.71
15750;BME280;7976;52.526;13.326;2023-05-02T12:43:18;101744.38;;;14.95;58.00
15750;BME280;7976;52.526;13.326;2023-05-02T12:45:46;101751.75;;;14.87;58.07
15750;BME280;7976;52.526;13.326;2023-05-02T12:48:19;101751.97;;;14.81;57.73
15750;BME280;7976;52.526;13.326;2023-05-02T12:50:47;101748.88;;;14.70;57.42
15750;BME280;7976;52.526;13.326;2023-05-02T12:53:15;101753.66;;;14.61;57.75
15750;BME280;7976;52.526;13.326;2023-05-02T12:55:42;101753.59;;;14.62;58.09
15750;BME280;7976;52.526;13.326;2023-05-02T12:58:10;101755.75;;;14.74;57.78
15750;BME280;7976;52.526;13.326;2023-05-02T13:00:40;101763.66;;;14.74;57.58
15750;BME280;7976;52.526;13.326;2023-05-02T13:03:08;101756.34;;;14.59;57.53
15750;BME280;7976;52.526;13.326;2023-05-02T13:05:36;101759.09;;;14.56;57.56